Impacts METAR Board INFO
IDs:

KPIT - Pittsburgh Intl, PA, US

Updated at: 0812 UTC 17 Dec 2017
Potential Impact None Slight Moderate High
Time16/20Z 16/21Z 16/22Z 16/23Z 17/00Z 17/01Z 17/02Z 17/03Z 17/04Z 17/05Z 17/06Z 17/07Z 17/08Z
VIS10 10 10 10 10 10 10 10 10 10 10 10 10
CIG-- -- -- -- -- -- -- -- -- -- -- -- --
CoverSCTFEWFEWFEWFEWFEWFEWFEWFEWFEWFEWSCTSCT
FltCatVFRVFRVFRVFRVFRVFRVFRVFRVFRVFRVFRVFRVFR
WX--------------------------
WDir220230230230220020000200230230210
WSpd10 6 5 3 3 0 3 0 0 4 5 5 4
WGst-- -- -- -- -- -- -- -- -- -- -- -- --
Raw hourly METARs
KPIT 161951Z 22010KT 10SM FEW090 SCT200 06/M03 A3000 RMK AO2 SLP175 T00561033 $
KPIT 162051Z 23006KT 10SM FEW090 FEW220 07/M03 A3001 RMK AO2 SLP179 T00671028 53000 $
KPIT 162151Z 23005KT 10SM FEW100 FEW250 06/M03 A3003 RMK AO2 SLP186 T00611033 $
KPIT 162251Z 23003KT 10SM FEW250 05/M03 A3006 RMK AO2 SLP195 T00501033 $
KPIT 162351Z 22003KT 10SM FEW250 03/M03 A3009 RMK AO2 SLP207 T00331033 10067 20033 53025 $
KPIT 170051Z 00000KT 10SM FEW250 02/M03 A3011 RMK AO2 SLP215 T00221033 $
KPIT 170151Z 20003KT 10SM FEW250 00/M04 A3011 RMK AO2 SLP215 T00001039
KPIT 170251Z 00000KT 10SM FEW250 01/M04 A3011 RMK AO2 SLP217 T00111039 51009
KPIT 170351Z 00000KT 10SM FEW250 01/M04 A3012 RMK AO2 SLP218 T00111039
KPIT 170451Z 20004KT 10SM FEW250 02/M04 A3013 RMK AO2 SLP221 T00171039 400671017
KPIT 170551Z 23005KT 10SM FEW250 03/M03 A3014 RMK AO2 SLP221 T00331033 10033 21006 51007
KPIT 170651Z 23005KT 10SM SCT250 03/M03 A3015 RMK AO2 SLP227 T00331028
KPIT 170751Z 21004KT 10SM SCT200 03/M03 A3016 RMK AO2 SLP228 T00281028